Time;durP1;ratioP1;P1;durP2;ratioP2;P2;SDS_P1;SDS_P2;PMS_P1;PMS_P2;Temp;Humidity;BMP_temperature;BMP_pressure;BME280_temperature;BME280_humidity;BME280_pressure;Samples;Min_cycle;Max_cycle;Signal;HPM_P1;HPM_P2
2023/08/02 00:01:35;;;;;;;8.40;6.70;;;12.80;99.90;;;;;;5035685;28;20248;-76
2023/08/02 00:04:01;;;;;;;12.20;6.87;;;12.90;99.90;;;;;;5035564;28;20280;-76
2023/08/02 00:06:28;;;;;;;12.70;7.13;;;12.80;99.90;;;;;;5035807;28;20252;-75
2023/08/02 00:08:55;;;;;;;12.23;6.70;;;12.80;99.90;;;;;;5035378;28;20228;-75
2023/08/02 00:11:23;;;;;;;9.93;6.83;;;12.80;99.90;;;;;;5035555;28;20252;-76
2023/08/02 00:13:49;;;;;;;11.07;7.50;;;12.80;99.90;;;;;;5035349;28;20226;-75
2023/08/02 00:16:16;;;;;;;12.27;7.23;;;12.80;99.90;;;;;;5034624;28;20202;-76
2023/08/02 00:18:42;;;;;;;11.07;7.53;;;12.80;99.90;;;;;;5035418;28;20203;-76
2023/08/02 00:21:09;;;;;;;11.13;6.97;;;12.80;99.90;;;;;;5035207;28;20202;-76
2023/08/02 00:23:36;;;;;;;11.90;6.90;;;12.70;99.90;;;;;;5035458;28;20255;-76
2023/08/02 00:26:02;;;;;;;10.53;7.27;;;12.70;99.90;;;;;;5035412;28;20219;-76
2023/08/02 00:28:30;;;;;;;13.03;7.50;;;12.70;99.90;;;;;;5035582;28;20491;-76
2023/08/02 00:30:57;;;;;;;10.33;6.67;;;12.70;99.90;;;;;;5035018;28;20665;-76
2023/08/02 00:33:23;;;;;;;10.47;6.80;;;12.70;99.90;;;;;;5035094;28;20261;-76
2023/08/02 00:35:50;;;;;;;7.97;6.27;;;12.70;99.90;;;;;;5035998;28;20198;-76
2023/08/02 00:38:17;;;;;;;7.67;6.80;;;12.80;99.90;;;;;;5037260;28;20205;-76
2023/08/02 00:40:44;;;;;;;9.83;6.87;;;12.80;99.90;;;;;;5034817;28;20626;-77
2023/08/02 00:43:10;;;;;;;12.70;6.80;;;12.90;99.90;;;;;;5034593;28;20207;-76
2023/08/02 00:45:38;;;;;;;9.93;6.53;;;12.90;99.90;;;;;;5040802;28;20271;-76
2023/08/02 00:48:05;;;;;;;9.13;6.30;;;12.80;99.90;;;;;;5035312;28;20225;-77
2023/08/02 00:50:34;;;;;;;10.07;6.20;;;12.80;99.90;;;;;;5035077;28;20244;-74
2023/08/02 00:53:02;;;;;;;10.50;6.33;;;12.80;99.90;;;;;;5034770;28;20720;-76
2023/08/02 00:55:29;;;;;;;11.13;5.93;;;12.90;99.90;;;;;;5034433;28;20605;-76
2023/08/02 00:57:56;;;;;;;11.07;6.20;;;12.80;99.90;;;;;;5034953;28;20264;-76
2023/08/02 01:00:23;;;;;;;11.67;6.53;;;12.70;99.90;;;;;;5034922;28;20198;-76
2023/08/02 01:02:51;;;;;;;10.17;6.23;;;12.80;99.90;;;;;;5034627;28;20199;-75
2023/08/02 01:05:21;;;;;;;8.80;6.07;;;12.70;99.90;;;;;;5034283;28;20531;-76
2023/08/02 01:07:53;;;;;;;12.30;6.07;;;12.60;99.90;;;;;;5034103;28;20199;-76
2023/08/02 01:10:26;;;;;;;8.87;6.27;;;12.60;99.90;;;;;;5034362;28;20198;-75
2023/08/02 01:12:55;;;;;;;10.27;6.60;;;12.60;99.90;;;;;;5034387;28;20194;-75
2023/08/02 01:15:22;;;;;;;11.97;6.30;;;12.70;99.90;;;;;;5034459;28;20264;-75
2023/08/02 01:17:52;;;;;;;11.07;6.50;;;12.70;99.90;;;;;;5034088;28;20206;-73
2023/08/02 01:20:20;;;;;;;10.43;6.23;;;12.60;99.90;;;;;;5033929;28;20260;-73
2023/08/02 01:22:46;;;;;;;9.23;6.37;;;12.60;99.90;;;;;;5034203;28;20727;-73
2023/08/02 01:25:13;;;;;;;10.63;6.23;;;12.60;99.90;;;;;;5033933;28;20613;-73
2023/08/02 01:27:44;;;;;;;10.80;6.63;;;12.60;99.90;;;;;;5033795;28;20202;-73
2023/08/02 01:30:14;;;;;;;8.10;6.20;;;12.50;99.90;;;;;;5034061;28;20325;-73
2023/08/02 01:32:41;;;;;;;9.07;6.40;;;12.40;99.90;;;;;;5033691;28;20252;-73
2023/08/02 01:35:09;;;;;;;8.63;6.67;;;12.20;99.90;;;;;;5033530;28;20229;-73
2023/08/02 01:37:37;;;;;;;10.50;6.77;;;12.10;99.90;;;;;;5033799;28;20261;-74
2023/08/02 01:40:04;;;;;;;9.37;7.17;;;12.10;99.90;;;;;;5033582;28;20230;-74
2023/08/02 01:42:31;;;;;;;11.03;7.07;;;12.10;99.90;;;;;;5033752;28;20203;-74
2023/08/02 01:44:57;;;;;;;12.43;7.50;;;12.10;99.90;;;;;;5033382;28;20579;-74
2023/08/02 01:47:24;;;;;;;8.87;6.93;;;12.10;99.90;;;;;;5033768;28;20202;-75
2023/08/02 01:49:51;;;;;;;10.60;7.40;;;12.10;99.90;;;;;;5033389;28;20249;-74
2023/08/02 01:52:17;;;;;;;13.57;8.90;;;12.10;99.90;;;;;;5033752;28;20202;-74
2023/08/02 01:54:45;;;;;;;16.50;8.97;;;12.00;99.90;;;;;;5033484;28;20273;-74
2023/08/02 01:57:12;;;;;;;15.07;8.87;;;12.00;99.90;;;;;;5033326;28;20248;-74
2023/08/02 01:59:38;;;;;;;16.53;8.23;;;12.00;99.90;;;;;;5033287;28;20198;-74
2023/08/02 02:02:05;;;;;;;11.53;7.60;;;12.00;99.90;;;;;;5033229;28;20654;-74
2023/08/02 02:04:32;;;;;;;7.50;5.83;;;12.00;99.90;;;;;;5033085;28;20289;-74
2023/08/02 02:06:58;;;;;;;9.10;6.90;;;12.20;99.90;;;;;;5033239;28;20198;-74
2023/08/02 02:09:25;;;;;;;10.10;6.57;;;12.20;99.90;;;;;;5033111;28;20606;-74
2023/08/02 02:11:53;;;;;;;9.20;6.07;;;12.10;99.90;;;;;;5033283;28;20623;-74
2023/08/02 02:14:20;;;;;;;13.80;6.53;;;12.30;99.90;;;;;;5033155;28;20218;-74
2023/08/02 02:16:46;;;;;;;8.27;6.60;;;12.30;99.90;;;;;;5033117;28;20256;-74
2023/08/02 02:19:13;;;;;;;11.77;6.60;;;12.40;99.90;;;;;;5033048;28;20347;-75
2023/08/02 02:21:39;;;;;;;11.47;7.43;;;12.30;99.90;;;;;;5033190;28;20225;-73
2023/08/02 02:24:06;;;;;;;11.33;6.33;;;12.20;99.90;;;;;;5032782;28;20202;-74
2023/08/02 02:26:33;;;;;;;8.83;6.40;;;12.10;99.90;;;;;;5032851;28;20198;-74
2023/08/02 02:29:01;;;;;;;8.60;6.07;;;12.20;99.90;;;;;;5032534;28;20598;-74
2023/08/02 02:31:27;;;;;;;11.90;7.23;;;12.20;99.90;;;;;;5032488;28;20199;-74
2023/08/02 02:33:54;;;;;;;7.73;5.90;;;12.10;99.90;;;;;;5032702;28;20222;-74
2023/08/02 02:36:21;;;;;;;8.87;6.47;;;11.90;99.90;;;;;;5032852;28;20202;-74
2023/08/02 02:38:47;;;;;;;11.73;7.57;;;11.90;99.90;;;;;;5032684;28;20288;-74
2023/08/02 02:41:14;;;;;;;14.10;6.70;;;11.90;99.90;;;;;;5036232;28;20566;-74
2023/08/02 02:43:40;;;;;;;8.23;6.67;;;12.00;99.90;;;;;;5036859;28;20260;-73
2023/08/02 02:46:08;;;;;;;9.67;6.30;;;12.10;99.90;;;;;;5036541;28;20727;-74
2023/08/02 02:48:35;;;;;;;10.13;6.70;;;12.00;99.90;;;;;;5036728;28;20198;-74
2023/08/02 02:51:01;;;;;;;10.03;6.70;;;12.00;99.90;;;;;;5036532;28;20665;-73
2023/08/02 02:53:28;;;;;;;10.53;6.77;;;12.00;99.90;;;;;;5036632;28;20202;-73
2023/08/02 02:55:56;;;;;;;16.93;8.70;;;12.00;99.90;;;;;;5036438;28;20222;-74
2023/08/02 02:58:22;;;;;;;14.03;8.97;;;12.00;99.90;;;;;;5036304;28;20301;-73
2023/08/02 03:00:50;;;;;;;11.67;7.20;;;12.00;99.90;;;;;;5036657;28;20240;-74
2023/08/02 03:03:18;;;;;;;16.17;7.90;;;12.00;99.90;;;;;;5036368;28;20195;-73
2023/08/02 03:05:44;;;;;;;14.17;8.93;;;12.00;99.90;;;;;;5036237;28;20202;-73
2023/08/02 03:08:11;;;;;;;13.90;7.93;;;12.00;99.90;;;;;;5036348;28;20256;-74
2023/08/02 03:10:37;;;;;;;11.83;8.10;;;12.10;99.90;;;;;;5036191;28;20198;-73
2023/08/02 03:13:03;;;;;;;12.93;7.60;;;12.00;99.90;;;;;;5036085;28;20704;-73
2023/08/02 03:15:30;;;;;;;9.60;7.20;;;11.90;99.90;;;;;;5036068;28;20303;-73
2023/08/02 03:17:56;;;;;;;10.87;6.63;;;11.90;99.90;;;;;;5036156;28;20199;-73
2023/08/02 03:20:24;;;;;;;13.37;7.20;;;11.90;99.90;;;;;;5036165;28;20202;-73
2023/08/02 03:22:51;;;;;;;11.47;7.60;;;11.80;99.90;;;;;;5036062;28;20194;-74
2023/08/02 03:25:18;;;;;;;11.30;6.97;;;11.70;99.90;;;;;;5035888;28;20210;-74
2023/08/02 03:27:44;;;;;;;11.90;6.43;;;11.80;99.90;;;;;;5035747;28;20253;-73
2023/08/02 03:30:11;;;;;;;10.03;6.40;;;11.70;99.90;;;;;;5035995;28;20608;-73
2023/08/02 03:32:38;;;;;;;8.67;6.33;;;11.80;99.90;;;;;;5035878;28;20202;-73
2023/08/02 03:35:05;;;;;;;9.47;6.70;;;11.70;99.90;;;;;;5035722;28;20222;-74
2023/08/02 03:37:33;;;;;;;8.40;6.17;;;11.70;99.90;;;;;;5035747;28;20202;-74
2023/08/02 03:40:00;;;;;;;11.37;6.93;;;11.70;99.90;;;;;;5035389;28;20627;-73
2023/08/02 03:42:26;;;;;;;13.57;7.10;;;11.70;99.90;;;;;;5035795;28;20194;-73
2023/08/02 03:44:53;;;;;;;10.13;6.60;;;11.80;99.90;;;;;;5035508;28;20198;-73
2023/08/02 03:47:19;;;;;;;11.30;6.90;;;11.80;99.90;;;;;;5035502;28;20194;-72
2023/08/02 03:49:46;;;;;;;9.60;6.70;;;11.70;99.90;;;;;;5035522;28;20425;-73
2023/08/02 03:52:13;;;;;;;8.57;6.40;;;11.70;99.90;;;;;;5035161;28;20202;-73
2023/08/02 03:54:41;;;;;;;11.03;6.37;;;11.70;99.90;;;;;;5035173;28;20226;-73
2023/08/02 03:57:08;;;;;;;9.27;6.33;;;11.80;99.90;;;;;;5035444;28;20241;-73
2023/08/02 03:59:34;;;;;;;13.87;7.17;;;11.80;99.90;;;;;;5035146;28;20220;-73
2023/08/02 04:02:01;;;;;;;10.93;6.63;;;11.80;99.90;;;;;;5035254;28;20252;-73
2023/08/02 04:04:27;;;;;;;10.50;7.07;;;11.80;99.90;;;;;;5035215;28;20238;-73
2023/08/02 04:06:54;;;;;;;9.73;6.30;;;11.80;99.90;;;;;;5035389;28;20260;-73
2023/08/02 04:09:21;;;;;;;10.83;7.27;;;11.90;99.90;;;;;;5034839;28;20241;-74
2023/08/02 04:11:49;;;;;;;11.70;7.10;;;11.90;99.90;;;;;;5034972;28;20252;-74
2023/08/02 04:14:15;;;;;;;7.40;6.23;;;11.90;99.90;;;;;;5034939;28;20362;-74
2023/08/02 04:16:42;;;;;;;9.40;6.73;;;12.00;99.90;;;;;;5034989;28;20194;-74
2023/08/02 04:19:08;;;;;;;14.97;7.93;;;12.00;99.90;;;;;;5034872;28;20210;-73
2023/08/02 04:21:35;;;;;;;10.60;6.20;;;12.00;99.90;;;;;;5034885;28;20255;-74
2023/08/02 04:24:01;;;;;;;11.87;6.77;;;12.10;99.90;;;;;;5034730;28;20621;-74
2023/08/02 04:26:28;;;;;;;8.70;6.00;;;12.10;99.90;;;;;;5034746;28;20198;-74
2023/08/02 04:28:56;;;;;;;8.33;5.53;;;12.20;99.90;;;;;;5034723;28;20199;-74
2023/08/02 04:31:23;;;;;;;7.03;5.23;;;12.30;99.90;;;;;;5034465;28;20198;-74
2023/08/02 04:33:49;;;;;;;7.90;5.40;;;12.40;99.90;;;;;;5034492;28;20202;-74
2023/08/02 04:36:16;;;;;;;6.97;5.60;;;12.50;99.90;;;;;;5034357;28;20693;-73
2023/08/02 04:38:42;;;;;;;7.10;5.27;;;12.50;99.90;;;;;;5034405;28;20284;-74
2023/08/02 04:41:15;;;;;;;7.13;5.30;;;12.60;99.90;;;;;;5034546;28;20597;-74
2023/08/02 04:43:42;;;;;;;7.07;4.80;;;12.70;99.90;;;;;;5034490;28;20685;-74
2023/08/02 04:46:10;;;;;;;6.20;5.03;;;12.80;99.90;;;;;;5034360;28;20734;-73
2023/08/02 04:48:36;;;;;;;6.63;4.90;;;12.80;99.90;;;;;;5034441;28;20252;-74
2023/08/02 04:51:06;;;;;;;7.30;4.70;;;12.90;99.90;;;;;;5034109;28;20198;-74
2023/08/02 04:53:33;;;;;;;8.07;4.77;;;12.90;99.90;;;;;;5034148;28;20724;-74
2023/08/02 04:55:59;;;;;;;7.13;4.47;;;13.00;99.90;;;;;;5033945;28;20222;-73
2023/08/02 04:58:26;;;;;;;5.83;4.40;;;13.10;99.90;;;;;;5043655;28;20526;-74
2023/08/02 05:00:53;;;;;;;7.73;4.30;;;13.20;99.90;;;;;;5054121;28;20198;-74
2023/08/02 05:03:22;;;;;;;4.30;3.90;;;13.30;99.90;;;;;;5053359;28;20194;-74
2023/08/02 05:05:49;;;;;;;5.90;4.00;;;13.30;99.90;;;;;;5053815;28;20243;-74
2023/08/02 05:08:16;;;;;;;4.10;3.70;;;13.30;99.90;;;;;;5053964;28;20193;-74
2023/08/02 05:10:42;;;;;;;5.47;3.67;;;13.40;99.90;;;;;;5053900;28;20240;-74
2023/08/02 05:13:09;;;;;;;5.40;3.83;;;13.40;99.90;;;;;;5053741;28;20245;-74
2023/08/02 05:15:37;;;;;;;7.03;4.27;;;13.50;99.90;;;;;;5053653;28;20229;-74
2023/08/02 05:18:03;;;;;;;5.60;3.77;;;13.50;99.90;;;;;;5053701;28;20202;-74
2023/08/02 05:20:32;;;;;;;5.27;3.70;;;13.60;99.90;;;;;;5053785;28;20205;-74
2023/08/02 05:22:59;;;;;;;4.03;3.20;;;13.70;99.90;;;;;;5053786;28;20200;-74
2023/08/02 05:25:30;;;;;;;7.27;3.70;;;13.80;99.90;;;;;;5053685;28;20198;-74
2023/08/02 05:27:57;;;;;;;4.13;3.40;;;13.90;99.90;;;;;;5053341;28;20266;-74
2023/08/02 05:30:23;;;;;;;5.80;3.53;;;14.00;99.90;;;;;;5053389;28;20194;-73
2023/08/02 05:32:51;;;;;;;5.97;3.20;;;14.00;99.90;;;;;;5053253;28;20607;-74
2023/08/02 05:35:18;;;;;;;5.13;3.50;;;14.00;99.90;;;;;;5053335;28;20279;-74
2023/08/02 05:37:45;;;;;;;5.57;3.33;;;14.10;99.90;;;;;;5053571;28;20251;-74
2023/08/02 05:40:12;;;;;;;3.30;2.97;;;14.00;99.90;;;;;;5053370;28;20279;-74
2023/08/02 05:42:39;;;;;;;3.60;3.23;;;14.10;99.90;;;;;;5053382;28;20201;-75
2023/08/02 05:45:07;;;;;;;4.63;3.70;;;14.20;99.90;;;;;;5053243;28;20255;-74
2023/08/02 05:47:34;;;;;;;3.50;3.20;;;14.20;99.90;;;;;;5053186;28;20198;-76
2023/08/02 05:50:00;;;;;;;5.03;3.30;;;14.30;99.90;;;;;;5053880;28;20270;-75
2023/08/02 05:52:27;;;;;;;6.23;3.47;;;14.30;99.90;;;;;;5053396;28;20243;-74
2023/08/02 05:54:55;;;;;;;4.60;3.30;;;14.30;99.90;;;;;;5053389;28;20248;-74
2023/08/02 05:57:21;;;;;;;7.13;3.83;;;14.40;99.90;;;;;;5053540;28;20662;-75
2023/08/02 05:59:49;;;;;;;5.50;3.27;;;14.40;99.90;;;;;;5053375;28;20247;-75
2023/08/02 06:02:16;;;;;;;6.87;3.53;;;14.40;99.90;;;;;;5053596;28;20228;-75
2023/08/02 06:04:44;;;;;;;4.70;3.50;;;14.40;99.90;;;;;;5053628;28;20201;-76
2023/08/02 06:07:11;;;;;;;4.17;3.13;;;14.50;99.90;;;;;;5053266;28;20600;-75
2023/08/02 06:09:38;;;;;;;5.87;3.20;;;14.60;99.90;;;;;;5053073;28;20724;-75
2023/08/02 06:12:08;;;;;;;5.10;3.33;;;14.60;99.90;;;;;;5053170;28;20197;-75
2023/08/02 06:14:34;;;;;;;6.27;3.60;;;14.60;99.90;;;;;;5052069;28;20201;-76
2023/08/02 06:17:01;;;;;;;4.60;3.40;;;14.70;99.90;;;;;;5053491;28;20248;-75
2023/08/02 06:19:28;;;;;;;5.07;3.30;;;14.70;99.90;;;;;;5053215;28;20593;-75
2023/08/02 06:21:54;;;;;;;5.17;3.40;;;14.70;99.90;;;;;;5053209;28;20252;-75
2023/08/02 06:24:21;;;;;;;3.60;3.27;;;14.80;99.90;;;;;;5053062;28;20271;-75
2023/08/02 06:26:48;;;;;;;4.30;3.57;;;14.90;99.90;;;;;;5053035;28;20195;-75
2023/08/02 06:29:16;;;;;;;4.60;3.53;;;14.80;99.90;;;;;;5053062;28;20230;-75
2023/08/02 06:31:42;;;;;;;4.67;3.23;;;14.90;99.90;;;;;;5053152;28;20256;-75
2023/08/02 06:34:09;;;;;;;5.20;3.70;;;14.90;99.90;;;;;;5052857;28;20206;-75
2023/08/02 06:36:38;;;;;;;3.43;3.13;;;14.90;99.90;;;;;;5052737;28;20711;-76
2023/08/02 06:39:05;;;;;;;5.63;3.67;;;15.00;99.90;;;;;;5052810;28;20252;-75
2023/08/02 06:41:31;;;;;;;3.90;3.50;;;14.90;99.90;;;;;;5052640;28;20201;-75
2023/08/02 06:43:58;;;;;;;4.20;3.60;;;15.10;99.90;;;;;;5053059;28;20194;-75
2023/08/02 06:46:26;;;;;;;4.73;3.60;;;15.10;99.90;;;;;;5052923;28;20209;-75
2023/08/02 06:48:52;;;;;;;5.23;3.70;;;15.10;99.90;;;;;;5052583;28;20670;-75
2023/08/02 06:51:19;;;;;;;8.10;3.30;;;15.10;99.90;;;;;;5052679;28;20209;-75
2023/08/02 06:53:45;;;;;;;5.13;3.10;;;15.10;99.90;;;;;;5052513;28;20201;-75
2023/08/02 06:56:13;;;;;;;5.80;3.53;;;15.00;99.90;;;;;;5052523;28;20225;-75
2023/08/02 06:58:40;;;;;;;5.27;3.50;;;15.00;99.90;;;;;;5052842;28;20562;-75
2023/08/02 07:01:13;;;;;;;3.63;3.10;;;15.00;99.90;;;;;;5052871;28;20248;-75
2023/08/02 07:03:41;;;;;;;5.87;3.70;;;14.90;99.90;;;;;;5052450;28;20672;-75
2023/08/02 07:06:09;;;;;;;4.27;3.47;;;15.00;99.90;;;;;;5052497;28;20224;-75
2023/08/02 07:08:36;;;;;;;6.97;3.60;;;14.90;99.90;;;;;;5052560;28;20197;-75
2023/08/02 07:11:04;;;;;;;6.77;3.90;;;14.90;99.90;;;;;;5052575;28;20224;-76
2023/08/02 07:13:30;;;;;;;4.90;3.50;;;14.90;99.90;;;;;;5052575;28;20569;-75
2023/08/02 07:15:57;;;;;;;4.90;3.80;;;14.90;99.90;;;;;;5052257;28;20222;-75
2023/08/02 07:18:24;;;;;;;5.13;3.97;;;14.90;99.90;;;;;;5052364;28;20194;-76
2023/08/02 07:20:52;;;;;;;7.00;4.20;;;15.00;99.90;;;;;;5052265;28;20200;-76
2023/08/02 07:23:18;;;;;;;5.03;3.97;;;15.20;99.90;;;;;;5052210;28;20209;-75
2023/08/02 07:25:45;;;;;;;5.27;3.70;;;15.30;99.90;;;;;;5053204;28;20259;-76
2023/08/02 07:28:12;;;;;;;5.43;3.63;;;15.30;99.90;;;;;;5056074;28;20193;-76
2023/08/02 07:30:39;;;;;;;4.50;4.03;;;15.30;99.90;;;;;;5039868;28;20268;-75
2023/08/02 07:33:05;;;;;;;6.87;4.23;;;15.30;99.90;;;;;;5036087;28;20609;-75
2023/08/02 07:35:36;;;;;;;4.33;3.50;;;15.40;99.90;;;;;;5035414;28;20272;-75
2023/08/02 07:38:04;;;;;;;6.07;3.90;;;15.30;99.90;;;;;;5042320;28;20198;-74
2023/08/02 07:40:30;;;;;;;7.37;4.67;;;15.50;99.90;;;;;;5055269;28;20234;-74
2023/08/02 07:42:57;;;;;;;6.23;4.40;;;15.50;99.90;;;;;;5055835;28;20255;-74
2023/08/02 07:45:24;;;;;;;5.03;3.90;;;15.50;99.90;;;;;;5055884;28;20327;-75
2023/08/02 07:47:50;;;;;;;4.87;4.00;;;15.60;99.90;;;;;;5056749;28;20524;-75
2023/08/02 07:50:17;;;;;;;6.43;4.60;;;15.80;99.90;;;;;;5059978;28;20210;-77
2023/08/02 07:52:43;;;;;;;5.03;4.50;;;15.70;99.90;;;;;;5055117;28;20593;-77
2023/08/02 07:55:11;;;;;;;5.00;4.50;;;15.80;99.90;;;;;;5055631;28;20194;-77
2023/08/02 07:57:38;;;;;;;9.13;4.63;;;15.80;99.90;;;;;;5055593;28;20194;-75
2023/08/02 08:00:06;;;;;;;8.03;4.67;;;15.70;99.90;;;;;;5055266;28;20198;-77
2023/08/02 08:02:32;;;;;;;6.57;4.87;;;15.70;99.90;;;;;;5055105;28;20201;-75
2023/08/02 08:04:59;;;;;;;5.07;4.57;;;15.60;99.90;;;;;;5055534;28;20253;-75
2023/08/02 08:07:25;;;;;;;8.77;5.07;;;15.60;99.90;;;;;;5055281;28;20228;-74
2023/08/02 08:09:52;;;;;;;6.30;4.90;;;15.90;99.90;;;;;;5054758;28;20552;-74
2023/08/02 08:12:20;;;;;;;6.97;4.73;;;16.10;99.90;;;;;;5054848;28;20738;-74
2023/08/02 08:14:47;;;;;;;5.60;4.80;;;16.30;99.90;;;;;;5055000;28;20252;-76
2023/08/02 08:17:13;;;;;;;8.90;5.27;;;16.30;99.90;;;;;;5054804;28;20268;-75
2023/08/02 08:19:40;;;;;;;6.37;5.40;;;16.30;99.90;;;;;;5054848;28;20247;-77
2023/08/02 08:22:06;;;;;;;7.50;5.85;;;16.40;99.90;;;;;;5055645;28;20198;-79
2023/08/02 08:24:33;;;;;;;7.75;5.68;;;16.50;99.90;;;;;;5055194;28;20263;-78
2023/08/02 08:27:00;;;;;;;7.30;5.43;;;16.50;99.90;;;;;;5055426;28;20603;-78
2023/08/02 08:29:28;;;;;;;8.00;5.90;;;16.70;99.90;;;;;;5055347;28;20587;-77
2023/08/02 08:31:55;;;;;;;7.10;5.85;;;16.60;99.90;;;;;;5055155;28;20244;-79
2023/08/02 08:34:22;;;;;;;7.20;5.40;;;16.60;99.90;;;;;;5054964;28;20198;-78
2023/08/02 08:36:49;;;;;;;6.80;5.80;;;16.50;99.90;;;;;;5054200;28;20276;-78
2023/08/02 08:39:18;;;;;;;8.25;6.50;;;16.60;99.90;;;;;;5054066;28;20763;-78
2023/08/02 08:41:44;;;;;;;9.85;6.65;;;16.70;99.90;;;;;;5054856;28;20296;-79
2023/08/02 08:44:11;;;;;;;9.65;6.07;;;16.70;99.90;;;;;;5054687;28;20202;-78
2023/08/02 08:46:40;;;;;;;8.55;6.50;;;16.70;99.90;;;;;;5054450;28;20256;-78
2023/08/02 08:49:07;;;;;;;9.33;5.90;;;16.80;99.90;;;;;;5054586;28;20202;-78
2023/08/02 08:51:35;;;;;;;7.13;5.60;;;16.90;99.90;;;;;;5054634;28;20197;-74
2023/08/02 08:54:05;;;;;;;6.47;5.82;;;16.60;99.90;;;;;;5054195;28;20209;-76
2023/08/02 08:56:39;;;;;;;6.88;6.03;;;16.50;99.90;;;;;;5054171;28;20225;-75
2023/08/02 08:59:07;;;;;;;8.27;5.85;;;16.90;99.90;;;;;;5053971;28;20202;-75
2023/08/02 09:01:34;;;;;;;7.90;6.63;;;17.10;99.90;;;;;;5054406;28;20202;-77
2023/08/02 09:04:03;;;;;;;8.03;6.60;;;17.10;99.90;;;;;;5054644;28;20225;-78
2023/08/02 09:06:30;;;;;;;7.47;6.43;;;16.90;99.90;;;;;;5054644;28;20209;-75
2023/08/02 09:08:57;;;;;;;7.57;6.80;;;16.80;99.90;;;;;;5053824;28;20248;-75
2023/08/02 09:11:24;;;;;;;7.57;6.85;;;17.10;99.90;;;;;;5053368;28;20662;-75
2023/08/02 09:14:09;;;;;;;8.02;7.22;;;17.00;99.90;;;;;;5053733;28;20197;-75
2023/08/02 09:16:36;;;;;;;8.00;7.15;;;17.20;99.90;;;;;;5053722;28;20264;-75
2023/08/02 09:19:04;;;;;;;8.10;7.05;;;17.30;99.90;;;;;;5053966;28;20293;-75
2023/08/02 09:21:30;;;;;;;8.10;7.32;;;17.40;99.90;;;;;;5053670;28;20654;-76
2023/08/02 09:24:00;;;;;;;8.05;7.07;;;17.20;99.90;;;;;;5053684;28;20198;-75
2023/08/02 09:26:29;;;;;;;9.65;7.43;;;17.40;99.90;;;;;;5053877;28;20205;-75
2023/08/02 09:29:00;;;;;;;7.47;6.60;;;17.50;99.90;;;;;;5053925;28;20243;-75
2023/08/02 09:31:28;;;;;;;7.88;6.90;;;17.30;99.90;;;;;;5053682;28;20240;-75
2023/08/02 09:33:55;;;;;;;10.23;7.15;;;17.40;99.90;;;;;;5053589;28;20194;-74
2023/08/02 09:36:25;;;;;;;7.38;6.32;;;17.60;99.90;;;;;;5053291;28;20243;-73
2023/08/02 09:39:01;;;;;;;7.40;6.60;;;17.10;99.90;;;;;;5053422;28;20287;-73
2023/08/02 09:41:28;;;;;;;8.23;7.40;;;17.10;99.90;;;;;;5053509;28;20197;-74
2023/08/02 09:43:55;;;;;;;8.25;7.00;;;17.00;99.90;;;;;;5053470;28;20204;-74
2023/08/02 09:46:28;;;;;;;7.43;6.68;;;17.00;99.90;;;;;;5053407;28;20197;-74
2023/08/02 09:48:56;;;;;;;7.97;7.18;;;17.00;99.90;;;;;;5053280;28;20290;-74
2023/08/02 09:51:39;;;;;;;8.88;6.85;;;16.80;99.90;;;;;;5053414;28;20275;-74
2023/08/02 09:54:05;;;;;;;7.78;6.97;;;16.80;99.90;;;;;;5053347;28;20294;-74
2023/08/02 09:56:34;;;;;;;9.97;7.27;;;16.90;99.90;;;;;;5053163;28;20226;-74
2023/08/02 09:59:02;;;;;;;8.50;7.18;;;16.70;99.90;;;;;;5053123;28;20202;-75
2023/08/02 10:01:30;;;;;;;8.38;7.43;;;16.60;99.90;;;;;;5053029;28;20209;-74
2023/08/02 10:03:59;;;;;;;8.47;7.50;;;16.10;99.90;;;;;;5053546;28;20201;-75
2023/08/02 10:06:30;;;;;;;11.57;7.90;;;16.00;99.90;;;;;;5053399;28;20271;-75
2023/08/02 10:09:02;;;;;;;8.27;7.40;;;16.00;99.90;;;;;;5053528;28;20251;-76
2023/08/02 10:11:30;;;;;;;7.80;7.00;;;15.90;99.90;;;;;;5053191;28;20208;-76
2023/08/02 10:13:57;;;;;;;10.27;8.00;;;15.90;99.90;;;;;;5053205;28;20256;-76
2023/08/02 10:16:25;;;;;;;9.57;8.10;;;15.90;99.90;;;;;;5053472;28;20279;-76
2023/08/02 10:18:53;;;;;;;10.37;8.63;;;16.00;99.90;;;;;;5053964;28;20248;-76
2023/08/02 10:21:22;;;;;;;9.90;7.80;;;16.20;99.90;;;;;;5053807;28;20208;-76
2023/08/02 10:23:50;;;;;;;10.07;7.67;;;16.10;99.90;;;;;;5066565;28;20226;-75
2023/08/02 10:26:18;;;;;;;8.73;7.83;;;16.10;99.90;;;;;;5054938;28;20205;-75
2023/08/02 10:28:45;;;;;;;8.33;7.10;;;16.00;99.90;;;;;;5055639;28;20197;-76
2023/08/02 10:31:12;;;;;;;9.40;7.57;;;16.00;99.90;;;;;;5054466;28;20660;-75
2023/08/02 10:33:38;;;;;;;9.50;7.37;;;16.00;99.90;;;;;;5052802;28;20239;-79
2023/08/02 10:36:06;;;;;;;8.87;7.87;;;15.80;99.90;;;;;;5035941;28;20741;-76
2023/08/02 10:38:52;;;;;;;8.33;7.40;;;15.90;99.90;;;;;;5033209;28;20300;-77
2023/08/02 10:41:21;;;;;;;7.87;7.07;;;15.90;99.90;;;;;;5033565;28;20194;-76
2023/08/02 10:44:10;;;;;;;8.77;7.20;;;15.80;99.90;;;;;;5033101;28;20198;-77
2023/08/02 10:46:36;;;;;;;8.17;6.83;;;15.80;99.90;;;;;;5032956;28;20206;-76
2023/08/02 10:49:41;;;;;;;7.63;6.80;;;15.90;99.90;;;;;;5032823;28;20202;-77
2023/08/02 10:52:28;;;;;;;8.87;6.50;;;16.00;99.90;;;;;;5033220;28;20221;-76
2023/08/02 10:55:11;;;;;;;7.23;6.37;;;16.20;99.90;;;;;;5032915;28;20202;-76
2023/08/02 10:57:38;;;;;;;8.10;6.90;;;16.30;99.90;;;;;;5032593;28;20286;-75
2023/08/02 11:00:19;;;;;;;7.40;6.70;;;16.40;99.90;;;;;;5032706;28;20202;-75
2023/08/02 11:02:48;;;;;;;11.77;7.10;;;16.60;99.90;;;;;;5036592;28;20205;-79
2023/08/02 11:05:18;;;;;;;7.73;5.93;;;16.80;99.90;;;;;;5036733;28;20252;-76
2023/08/02 11:07:58;;;;;;;7.00;6.03;;;16.90;99.90;;;;;;5037026;28;20262;-78
2023/08/02 11:10:26;;;;;;;7.65;5.53;;;17.10;99.90;;;;;;5037301;28;20201;-78
2023/08/02 11:12:53;;;;;;;6.93;5.53;;;17.20;99.90;;;;;;5037782;28;20202;-77
2023/08/02 11:15:20;;;;;;;6.30;5.70;;;17.20;99.90;;;;;;5036652;28;20198;-76
2023/08/02 11:17:48;;;;;;;5.70;5.10;;;17.40;99.90;;;;;;5036203;28;20261;-78
2023/08/02 11:20:16;;;;;;;7.10;5.68;;;17.40;99.90;;;;;;5036228;28;20216;-77
2023/08/02 11:22:42;;;;;;;6.18;5.57;;;17.30;99.90;;;;;;5036420;28;20202;-77
2023/08/02 11:25:09;;;;;;;6.47;5.88;;;17.10;99.90;;;;;;5036308;28;20202;-77
2023/08/02 11:27:39;;;;;;;6.97;5.47;;;17.20;99.90;;;;;;5040623;28;20198;-77
2023/08/02 11:30:07;;;;;;;5.82;4.95;;;17.20;99.90;;;;;;5035924;28;20264;-76
2023/08/02 11:32:42;;;;;;;5.80;5.30;;;17.30;99.90;;;;;;5035891;28;20202;-76
2023/08/02 11:35:09;;;;;;;6.03;5.05;;;17.40;99.90;;;;;;5036019;28;20202;-76
2023/08/02 11:37:37;;;;;;;5.90;5.30;;;17.50;99.90;;;;;;5036242;28;20288;-77
2023/08/02 11:40:05;;;;;;;6.00;5.40;;;17.70;99.90;;;;;;5035859;28;20302;-77
2023/08/02 11:42:31;;;;;;;5.70;4.97;;;17.70;99.90;;;;;;5036173;28;20225;-76
2023/08/02 11:44:59;;;;;;;6.57;5.40;;;17.70;99.90;;;;;;5035724;28;20228;-76
2023/08/02 11:47:35;;;;;;;5.72;5.20;;;17.70;99.90;;;;;;5035644;28;20256;-76
2023/08/02 11:50:02;;;;;;;5.97;5.25;;;17.60;99.90;;;;;;5035573;28;20197;-75
2023/08/02 11:52:31;;;;;;;5.95;5.40;;;17.90;99.90;;;;;;5035626;28;20205;-76
2023/08/02 11:54:58;;;;;;;5.50;4.95;;;17.80;99.90;;;;;;5035584;28;20202;-76
2023/08/02 11:57:26;;;;;;;6.03;5.13;;;17.70;99.90;;;;;;5035393;28;20292;-74
2023/08/02 11:59:57;;;;;;;6.35;5.10;;;17.50;99.90;;;;;;5035271;28;20202;-80
2023/08/02 12:02:27;;;;;;;6.00;5.40;;;17.40;99.90;;;;;;5035899;28;20198;-76
2023/08/02 12:04:53;;;;;;;6.28;5.20;;;17.20;99.90;;;;;;5035908;28;20202;-78
2023/08/02 12:07:28;;;;;;;7.57;6.22;;;17.30;99.90;;;;;;5035906;28;20198;-78
2023/08/02 12:09:54;;;;;;;7.28;6.53;;;17.20;99.90;;;;;;5036251;28;20259;-77
2023/08/02 12:12:22;;;;;;;7.18;6.28;;;17.10;99.90;;;;;;5034776;28;20206;-79
2023/08/02 12:14:49;;;;;;;7.53;6.50;;;17.10;99.90;;;;;;5036947;28;20198;-78
2023/08/02 12:17:20;;;;;;;7.55;6.53;;;17.20;99.90;;;;;;5035497;28;20222;-78
2023/08/02 12:19:48;;;;;;;7.63;6.80;;;17.30;99.90;;;;;;5034927;28;20206;-79
2023/08/02 12:22:15;;;;;;;8.05;6.82;;;17.30;99.90;;;;;;5035495;28;20249;-80
2023/08/02 12:24:42;;;;;;;8.38;7.30;;;17.30;99.90;;;;;;5035324;28;20206;-79
2023/08/02 12:27:16;;;;;;;8.00;6.63;;;17.30;99.90;;;;;;5036390;28;20289;-80
2023/08/02 12:29:44;;;;;;;8.65;7.05;;;17.20;99.90;;;;;;5055668;28;20197;-77
2023/08/02 12:32:11;;;;;;;8.00;7.20;;;17.20;99.90;;;;;;5054893;28;20198;-79
2023/08/02 12:34:37;;;;;;;9.82;7.38;;;17.30;99.90;;;;;;5055034;28;20255;-78
2023/08/02 12:37:06;;;;;;;7.82;7.03;;;17.40;99.90;;;;;;5055304;28;20704;-84
2023/08/02 12:39:33;;;;;;;10.30;7.38;;;17.40;99.90;;;;;;5054342;28;20252;-78
2023/08/02 12:42:00;;;;;;;8.43;7.53;;;17.40;99.90;;;;;;5055323;28;20280;-78
2023/08/02 12:44:26;;;;;;;8.63;7.38;;;17.50;99.90;;;;;;5055095;28;20198;-82
2023/08/02 12:46:53;;;;;;;9.63;6.63;;;17.40;99.90;;;;;;5055156;28;20255;-78